sensor_id;sensor_type;location;lat;lon;timestamp;temperature;humidity
75430;DHT22;64127;51.488;5.462;2023-04-24T00:01:42;11.10;99.90
75430;DHT22;64127;51.488;5.462;2023-04-24T00:04:14;11.10;99.90
75430;DHT22;64127;51.488;5.462;2023-04-24T00:06:48;11.10;99.90
75430;DHT22;64127;51.488;5.462;2023-04-24T00:09:26;11.10;99.90
75430;DHT22;64127;51.488;5.462;2023-04-24T00:11:57;11.10;99.90
75430;DHT22;64127;51.488;5.462;2023-04-24T00:14:31;11.10;99.90
75430;DHT22;64127;51.488;5.462;2023-04-24T00:17:04;11.10;99.90
75430;DHT22;64127;51.488;5.462;2023-04-24T00:19:36;11.10;99.90
75430;DHT22;64127;51.488;5.462;2023-04-24T00:22:08;11.00;99.90
75430;DHT22;64127;51.488;5.462;2023-04-24T00:24:40;11.00;99.90
75430;DHT22;64127;51.488;5.462;2023-04-24T00:27:12;11.00;99.90
75430;DHT22;64127;51.488;5.462;2023-04-24T00:29:44;11.10;99.90
75430;DHT22;64127;51.488;5.462;2023-04-24T00:32:16;11.10;99.90
75430;DHT22;64127;51.488;5.462;2023-04-24T00:34:49;11.00;99.90
75430;DHT22;64127;51.488;5.462;2023-04-24T00:37:21;11.00;99.90
75430;DHT22;64127;51.488;5.462;2023-04-24T00:39:53;11.00;99.90
75430;DHT22;64127;51.488;5.462;2023-04-24T00:42:26;11.00;99.90
75430;DHT22;64127;51.488;5.462;2023-04-24T00:44:58;11.00;99.90
75430;DHT22;64127;51.488;5.462;2023-04-24T00:47:33;11.00;99.90
75430;DHT22;64127;51.488;5.462;2023-04-24T00:50:07;10.90;99.90
75430;DHT22;64127;51.488;5.462;2023-04-24T00:52:39;10.90;99.90
75430;DHT22;64127;51.488;5.462;2023-04-24T00:55:12;10.90;99.90
75430;DHT22;64127;51.488;5.462;2023-04-24T00:57:45;10.90;99.90
75430;DHT22;64127;51.488;5.462;2023-04-24T01:00:18;10.90;99.90
75430;DHT22;64127;51.488;5.462;2023-04-24T01:02:51;10.90;99.90
75430;DHT22;64127;51.488;5.462;2023-04-24T01:05:25;10.80;99.90
75430;DHT22;64127;51.488;5.462;2023-04-24T01:07:58;10.80;99.90
75430;DHT22;64127;51.488;5.462;2023-04-24T01:10:33;10.90;99.90
75430;DHT22;64127;51.488;5.462;2023-04-24T01:13:09;10.90;99.90
75430;DHT22;64127;51.488;5.462;2023-04-24T01:15:42;10.80;99.90
75430;DHT22;64127;51.488;5.462;2023-04-24T01:18:15;10.80;99.90
75430;DHT22;64127;51.488;5.462;2023-04-24T01:20:51;10.80;99.90
75430;DHT22;64127;51.488;5.462;2023-04-24T01:23:26;10.80;99.90
75430;DHT22;64127;51.488;5.462;2023-04-24T01:25:58;10.80;99.90
75430;DHT22;64127;51.488;5.462;2023-04-24T01:28:30;10.70;99.90
75430;DHT22;64127;51.488;5.462;2023-04-24T01:31:03;10.80;99.90
75430;DHT22;64127;51.488;5.462;2023-04-24T01:33:35;10.70;99.90
75430;DHT22;64127;51.488;5.462;2023-04-24T01:36:09;10.70;99.90
75430;DHT22;64127;51.488;5.462;2023-04-24T01:38:42;10.70;99.90
75430;DHT22;64127;51.488;5.462;2023-04-24T01:41:15;10.60;99.90
75430;DHT22;64127;51.488;5.462;2023-04-24T01:43:48;10.70;99.90
75430;DHT22;64127;51.488;5.462;2023-04-24T01:46:20;10.60;99.90
75430;DHT22;64127;51.488;5.462;2023-04-24T01:48:53;10.60;99.90
75430;DHT22;64127;51.488;5.462;2023-04-24T01:51:25;10.60;99.90
75430;DHT22;64127;51.488;5.462;2023-04-24T01:53:57;10.60;99.90
75430;DHT22;64127;51.488;5.462;2023-04-24T01:56:29;10.60;99.90
75430;DHT22;64127;51.488;5.462;2023-04-24T01:59:03;10.60;99.90
75430;DHT22;64127;51.488;5.462;2023-04-24T02:01:36;10.60;99.90
75430;DHT22;64127;51.488;5.462;2023-04-24T02:04:08;10.60;99.90
75430;DHT22;64127;51.488;5.462;2023-04-24T02:06:41;10.60;99.90
75430;DHT22;64127;51.488;5.462;2023-04-24T02:09:12;10.50;99.90
75430;DHT22;64127;51.488;5.462;2023-04-24T02:11:44;10.50;99.90
75430;DHT22;64127;51.488;5.462;2023-04-24T02:14:16;10.50;99.90
75430;DHT22;64127;51.488;5.462;2023-04-24T02:16:49;10.50;99.90
75430;DHT22;64127;51.488;5.462;2023-04-24T02:19:21;10.50;99.90
75430;DHT22;64127;51.488;5.462;2023-04-24T02:21:53;10.50;99.90
75430;DHT22;64127;51.488;5.462;2023-04-24T02:24:25;10.50;99.90
75430;DHT22;64127;51.488;5.462;2023-04-24T02:26:57;10.40;99.90
75430;DHT22;64127;51.488;5.462;2023-04-24T02:29:29;10.50;99.90
75430;DHT22;64127;51.488;5.462;2023-04-24T02:32:02;10.50;99.90
75430;DHT22;64127;51.488;5.462;2023-04-24T02:34:34;10.50;99.90
75430;DHT22;64127;51.488;5.462;2023-04-24T02:37:06;10.50;99.90
75430;DHT22;64127;51.488;5.462;2023-04-24T02:39:38;10.50;99.90
75430;DHT22;64127;51.488;5.462;2023-04-24T02:42:10;10.50;99.90
75430;DHT22;64127;51.488;5.462;2023-04-24T02:44:42;10.50;99.90
75430;DHT22;64127;51.488;5.462;2023-04-24T02:47:14;10.40;99.90
75430;DHT22;64127;51.488;5.462;2023-04-24T02:49:46;10.40;99.90
75430;DHT22;64127;51.488;5.462;2023-04-24T02:52:18;10.40;99.90
75430;DHT22;64127;51.488;5.462;2023-04-24T02:54:50;10.40;99.90
75430;DHT22;64127;51.488;5.462;2023-04-24T02:57:22;10.40;99.90
75430;DHT22;64127;51.488;5.462;2023-04-24T02:59:54;10.40;99.90
75430;DHT22;64127;51.488;5.462;2023-04-24T03:02:26;10.50;99.90
75430;DHT22;64127;51.488;5.462;2023-04-24T03:04:58;10.50;99.90
75430;DHT22;64127;51.488;5.462;2023-04-24T03:07:31;10.50;99.90
75430;DHT22;64127;51.488;5.462;2023-04-24T03:10:04;10.40;99.90
75430;DHT22;64127;51.488;5.462;2023-04-24T03:12:37;10.40;99.90
75430;DHT22;64127;51.488;5.462;2023-04-24T03:15:09;10.50;99.90
75430;DHT22;64127;51.488;5.462;2023-04-24T03:17:41;10.40;99.90
75430;DHT22;64127;51.488;5.462;2023-04-24T03:20:14;10.40;99.90
75430;DHT22;64127;51.488;5.462;2023-04-24T03:22:46;10.40;99.90
75430;DHT22;64127;51.488;5.462;2023-04-24T03:25:18;10.40;99.90
75430;DHT22;64127;51.488;5.462;2023-04-24T03:27:50;10.40;99.90
75430;DHT22;64127;51.488;5.462;2023-04-24T03:30:22;10.30;99.90
75430;DHT22;64127;51.488;5.462;2023-04-24T03:32:54;10.30;99.90
75430;DHT22;64127;51.488;5.462;2023-04-24T03:35:26;10.30;99.90
75430;DHT22;64127;51.488;5.462;2023-04-24T03:37:58;10.30;99.90
75430;DHT22;64127;51.488;5.462;2023-04-24T03:40:30;10.30;99.90
75430;DHT22;64127;51.488;5.462;2023-04-24T03:43:02;10.30;99.90
75430;DHT22;64127;51.488;5.462;2023-04-24T03:45:34;10.30;99.90
75430;DHT22;64127;51.488;5.462;2023-04-24T03:48:06;10.30;99.90
75430;DHT22;64127;51.488;5.462;2023-04-24T03:50:39;10.30;99.90
75430;DHT22;64127;51.488;5.462;2023-04-24T03:53:11;10.30;99.90
75430;DHT22;64127;51.488;5.462;2023-04-24T03:55:43;10.30;99.90
75430;DHT22;64127;51.488;5.462;2023-04-24T03:58:15;10.30;99.90
75430;DHT22;64127;51.488;5.462;2023-04-24T04:00:47;10.30;99.90
75430;DHT22;64127;51.488;5.462;2023-04-24T04:03:19;10.30;99.90
75430;DHT22;64127;51.488;5.462;2023-04-24T04:05:52;10.30;99.90
75430;DHT22;64127;51.488;5.462;2023-04-24T04:08:25;10.30;99.90
75430;DHT22;64127;51.488;5.462;2023-04-24T04:10:57;10.30;99.90
75430;DHT22;64127;51.488;5.462;2023-04-24T04:13:29;10.30;99.90
75430;DHT22;64127;51.488;5.462;2023-04-24T04:16:02;10.30;99.90
75430;DHT22;64127;51.488;5.462;2023-04-24T04:18:34;10.30;99.90
75430;DHT22;64127;51.488;5.462;2023-04-24T04:21:06;10.30;99.90
75430;DHT22;64127;51.488;5.462;2023-04-24T04:23:38;10.30;99.90
75430;DHT22;64127;51.488;5.462;2023-04-24T04:26:11;10.20;99.90
75430;DHT22;64127;51.488;5.462;2023-04-24T04:28:44;10.20;99.90
75430;DHT22;64127;51.488;5.462;2023-04-24T04:31:16;10.20;99.90
75430;DHT22;64127;51.488;5.462;2023-04-24T04:33:48;10.20;99.90
75430;DHT22;64127;51.488;5.462;2023-04-24T04:36:20;10.20;99.90
75430;DHT22;64127;51.488;5.462;2023-04-24T04:38:52;10.10;99.90
75430;DHT22;64127;51.488;5.462;2023-04-24T04:41:26;10.10;99.90
75430;DHT22;64127;51.488;5.462;2023-04-24T04:43:58;10.10;99.90
75430;DHT22;64127;51.488;5.462;2023-04-24T04:46:30;10.10;99.90
75430;DHT22;64127;51.488;5.462;2023-04-24T04:49:04;10.10;99.90
75430;DHT22;64127;51.488;5.462;2023-04-24T04:51:36;10.00;99.90
75430;DHT22;64127;51.488;5.462;2023-04-24T04:54:08;10.00;99.90
75430;DHT22;64127;51.488;5.462;2023-04-24T04:56:40;10.00;99.90
75430;DHT22;64127;51.488;5.462;2023-04-24T04:59:12;10.00;99.90
75430;DHT22;64127;51.488;5.462;2023-04-24T05:01:44;10.00;99.90
75430;DHT22;64127;51.488;5.462;2023-04-24T05:04:16;10.00;99.90
75430;DHT22;64127;51.488;5.462;2023-04-24T05:06:48;10.00;99.90
75430;DHT22;64127;51.488;5.462;2023-04-24T05:09:22;10.00;99.90
75430;DHT22;64127;51.488;5.462;2023-04-24T05:11:55;9.90;99.90
75430;DHT22;64127;51.488;5.462;2023-04-24T05:14:27;9.90;99.90
75430;DHT22;64127;51.488;5.462;2023-04-24T05:16:59;9.90;99.90
75430;DHT22;64127;51.488;5.462;2023-04-24T05:19:32;9.90;99.90
75430;DHT22;64127;51.488;5.462;2023-04-24T05:22:08;10.00;99.90
75430;DHT22;64127;51.488;5.462;2023-04-24T05:24:41;10.00;99.90
75430;DHT22;64127;51.488;5.462;2023-04-24T05:27:13;10.00;99.90
75430;DHT22;64127;51.488;5.462;2023-04-24T05:29:45;10.00;99.90
75430;DHT22;64127;51.488;5.462;2023-04-24T05:32:17;10.00;99.90
75430;DHT22;64127;51.488;5.462;2023-04-24T05:34:49;10.00;99.90
75430;DHT22;64127;51.488;5.462;2023-04-24T05:37:21;9.90;99.90
75430;DHT22;64127;51.488;5.462;2023-04-24T05:39:53;9.90;99.90
75430;DHT22;64127;51.488;5.462;2023-04-24T05:42:26;9.90;99.90
75430;DHT22;64127;51.488;5.462;2023-04-24T05:44:58;9.80;99.90
75430;DHT22;64127;51.488;5.462;2023-04-24T05:47:29;9.80;99.90
75430;DHT22;64127;51.488;5.462;2023-04-24T05:50:02;9.80;99.90
75430;DHT22;64127;51.488;5.462;2023-04-24T05:52:34;9.80;99.90
75430;DHT22;64127;51.488;5.462;2023-04-24T05:55:06;9.80;99.90
75430;DHT22;64127;51.488;5.462;2023-04-24T05:57:39;9.70;99.90
75430;DHT22;64127;51.488;5.462;2023-04-24T06:00:11;9.70;99.90
75430;DHT22;64127;51.488;5.462;2023-04-24T06:02:43;9.70;99.90
75430;DHT22;64127;51.488;5.462;2023-04-24T06:05:16;9.70;99.90
75430;DHT22;64127;51.488;5.462;2023-04-24T06:07:49;9.70;99.90
75430;DHT22;64127;51.488;5.462;2023-04-24T06:10:21;9.70;99.90
75430;DHT22;64127;51.488;5.462;2023-04-24T06:12:53;9.70;99.90
75430;DHT22;64127;51.488;5.462;2023-04-24T06:15:31;9.70;99.90
75430;DHT22;64127;51.488;5.462;2023-04-24T06:18:03;9.70;99.90
75430;DHT22;64127;51.488;5.462;2023-04-24T06:20:35;9.70;99.90
75430;DHT22;64127;51.488;5.462;2023-04-24T06:23:07;9.70;99.90
75430;DHT22;64127;51.488;5.462;2023-04-24T06:25:39;9.70;99.90
75430;DHT22;64127;51.488;5.462;2023-04-24T06:28:12;9.70;99.90
75430;DHT22;64127;51.488;5.462;2023-04-24T06:30:44;9.70;99.90
75430;DHT22;64127;51.488;5.462;2023-04-24T06:33:16;9.70;99.90
75430;DHT22;64127;51.488;5.462;2023-04-24T06:35:53;9.70;99.90
75430;DHT22;64127;51.488;5.462;2023-04-24T06:38:25;9.70;99.90
75430;DHT22;64127;51.488;5.462;2023-04-24T06:40:57;9.70;99.90
75430;DHT22;64127;51.488;5.462;2023-04-24T06:43:29;9.70;99.90
75430;DHT22;64127;51.488;5.462;2023-04-24T06:46:02;9.70;99.90
75430;DHT22;64127;51.488;5.462;2023-04-24T06:48:35;9.60;99.90
75430;DHT22;64127;51.488;5.462;2023-04-24T06:51:07;9.60;99.90
75430;DHT22;64127;51.488;5.462;2023-04-24T06:53:39;9.60;99.90
75430;DHT22;64127;51.488;5.462;2023-04-24T06:56:11;9.60;99.90
75430;DHT22;64127;51.488;5.462;2023-04-24T06:58:43;9.60;99.90
75430;DHT22;64127;51.488;5.462;2023-04-24T07:01:16;9.60;99.90
75430;DHT22;64127;51.488;5.462;2023-04-24T07:03:49;9.60;99.90
75430;DHT22;64127;51.488;5.462;2023-04-24T07:06:21;9.60;99.90
75430;DHT22;64127;51.488;5.462;2023-04-24T07:08:55;9.60;99.90
75430;DHT22;64127;51.488;5.462;2023-04-24T07:11:28;9.60;99.90
75430;DHT22;64127;51.488;5.462;2023-04-24T07:14:00;9.60;99.90
75430;DHT22;64127;51.488;5.462;2023-04-24T07:16:32;9.60;99.90
75430;DHT22;64127;51.488;5.462;2023-04-24T07:19:05;9.60;99.90
75430;DHT22;64127;51.488;5.462;2023-04-24T07:21:37;9.50;99.90
75430;DHT22;64127;51.488;5.462;2023-04-24T07:24:09;9.50;99.90
75430;DHT22;64127;51.488;5.462;2023-04-24T07:26:42;9.50;99.90
75430;DHT22;64127;51.488;5.462;2023-04-24T07:29:14;9.60;99.90
75430;DHT22;64127;51.488;5.462;2023-04-24T07:31:47;9.60;99.90
75430;DHT22;64127;51.488;5.462;2023-04-24T07:34:19;9.60;99.90
75430;DHT22;64127;51.488;5.462;2023-04-24T07:36:51;9.60;99.90
75430;DHT22;64127;51.488;5.462;2023-04-24T07:39:24;9.60;99.90
75430;DHT22;64127;51.488;5.462;2023-04-24T07:41:56;9.60;99.90
75430;DHT22;64127;51.488;5.462;2023-04-24T07:44:28;9.60;99.90
75430;DHT22;64127;51.488;5.462;2023-04-24T07:47:00;9.60;99.90
75430;DHT22;64127;51.488;5.462;2023-04-24T07:49:32;9.60;99.90
75430;DHT22;64127;51.488;5.462;2023-04-24T07:52:06;9.60;99.90
75430;DHT22;64127;51.488;5.462;2023-04-24T07:54:38;9.60;99.90
75430;DHT22;64127;51.488;5.462;2023-04-24T07:57:10;9.60;99.90
75430;DHT22;64127;51.488;5.462;2023-04-24T07:59:42;9.60;99.90
75430;DHT22;64127;51.488;5.462;2023-04-24T08:02:14;9.70;99.90
75430;DHT22;64127;51.488;5.462;2023-04-24T08:04:47;9.70;99.90
75430;DHT22;64127;51.488;5.462;2023-04-24T08:07:19;9.70;99.90
75430;DHT22;64127;51.488;5.462;2023-04-24T08:09:51;9.70;99.90
75430;DHT22;64127;51.488;5.462;2023-04-24T08:12:23;9.70;99.90
75430;DHT22;64127;51.488;5.462;2023-04-24T08:14:55;9.70;99.90
75430;DHT22;64127;51.488;5.462;2023-04-24T08:17:27;9.70;99.90
75430;DHT22;64127;51.488;5.462;2023-04-24T08:19:59;9.70;99.90
75430;DHT22;64127;51.488;5.462;2023-04-24T08:22:33;9.70;99.90
75430;DHT22;64127;51.488;5.462;2023-04-24T08:25:05;9.70;99.90
75430;DHT22;64127;51.488;5.462;2023-04-24T08:27:38;9.80;99.90
75430;DHT22;64127;51.488;5.462;2023-04-24T08:30:11;9.80;99.90
75430;DHT22;64127;51.488;5.462;2023-04-24T08:32:43;9.80;99.90
75430;DHT22;64127;51.488;5.462;2023-04-24T08:35:15;9.80;99.90
75430;DHT22;64127;51.488;5.462;2023-04-24T08:37:47;9.80;99.90
75430;DHT22;64127;51.488;5.462;2023-04-24T08:40:22;9.90;99.90
75430;DHT22;64127;51.488;5.462;2023-04-24T08:43:03;9.90;99.90
75430;DHT22;64127;51.488;5.462;2023-04-24T08:45:36;9.90;99.90
75430;DHT22;64127;51.488;5.462;2023-04-24T08:48:09;9.90;99.90
75430;DHT22;64127;51.488;5.462;2023-04-24T08:50:54;9.90;99.90
75430;DHT22;64127;51.488;5.462;2023-04-24T08:53:28;10.00;99.90
75430;DHT22;64127;51.488;5.462;2023-04-24T08:56:01;10.00;99.90
75430;DHT22;64127;51.488;5.462;2023-04-24T08:58:33;10.10;99.90
75430;DHT22;64127;51.488;5.462;2023-04-24T09:01:07;10.10;99.90
75430;DHT22;64127;51.488;5.462;2023-04-24T09:03:39;10.20;99.90
75430;DHT22;64127;51.488;5.462;2023-04-24T09:06:12;10.20;99.90
75430;DHT22;64127;51.488;5.462;2023-04-24T09:08:45;10.30;99.90
75430;DHT22;64127;51.488;5.462;2023-04-24T09:11:19;10.30;99.90
75430;DHT22;64127;51.488;5.462;2023-04-24T09:13:51;10.30;99.90
75430;DHT22;64127;51.488;5.462;2023-04-24T09:16:25;10.20;99.90
75430;DHT22;64127;51.488;5.462;2023-04-24T09:18:58;10.20;99.90
75430;DHT22;64127;51.488;5.462;2023-04-24T09:21:34;10.20;99.90
75430;DHT22;64127;51.488;5.462;2023-04-24T09:24:09;10.20;99.90
75430;DHT22;64127;51.488;5.462;2023-04-24T09:26:57;10.10;99.90
75430;DHT22;64127;51.488;5.462;2023-04-24T09:29:30;10.10;99.90
75430;DHT22;64127;51.488;5.462;2023-04-24T09:32:21;10.20;99.90
75430;DHT22;64127;51.488;5.462;2023-04-24T09:35:10;10.20;99.90
75430;DHT22;64127;51.488;5.462;2023-04-24T09:37:47;10.20;99.90
75430;DHT22;64127;51.488;5.462;2023-04-24T09:40:21;10.20;99.90
75430;DHT22;64127;51.488;5.462;2023-04-24T09:42:57;10.20;99.90
75430;DHT22;64127;51.488;5.462;2023-04-24T09:45:36;10.20;99.90
75430;DHT22;64127;51.488;5.462;2023-04-24T09:48:11;10.10;99.90
75430;DHT22;64127;51.488;5.462;2023-04-24T09:50:46;10.10;99.90
75430;DHT22;64127;51.488;5.462;2023-04-24T09:53:24;10.00;99.90
75430;DHT22;64127;51.488;5.462;2023-04-24T09:56:03;10.00;99.90
75430;DHT22;64127;51.488;5.462;2023-04-24T09:58:38;10.00;99.90
75430;DHT22;64127;51.488;5.462;2023-04-24T10:01:10;10.10;99.90
75430;DHT22;64127;51.488;5.462;2023-04-24T10:03:43;10.20;99.90
75430;DHT22;64127;51.488;5.462;2023-04-24T10:06:16;10.20;99.90
75430;DHT22;64127;51.488;5.462;2023-04-24T10:08:49;10.40;99.90
75430;DHT22;64127;51.488;5.462;2023-04-24T10:11:22;10.50;99.90
75430;DHT22;64127;51.488;5.462;2023-04-24T10:13:55;10.70;99.90
75430;DHT22;64127;51.488;5.462;2023-04-24T10:16:29;10.90;99.90
75430;DHT22;64127;51.488;5.462;2023-04-24T10:19:03;11.00;99.90
75430;DHT22;64127;51.488;5.462;2023-04-24T10:21:35;11.10;99.90
75430;DHT22;64127;51.488;5.462;2023-04-24T10:24:10;11.20;99.90
75430;DHT22;64127;51.488;5.462;2023-04-24T10:26:45;11.20;99.90
75430;DHT22;64127;51.488;5.462;2023-04-24T10:29:18;11.10;99.90
75430;DHT22;64127;51.488;5.462;2023-04-24T10:31:51;11.10;99.90
75430;DHT22;64127;51.488;5.462;2023-04-24T10:34:24;11.00;99.90
75430;DHT22;64127;51.488;5.462;2023-04-24T10:36:57;11.00;99.90
75430;DHT22;64127;51.488;5.462;2023-04-24T10:39:29;10.90;99.90
75430;DHT22;64127;51.488;5.462;2023-04-24T10:42:07;10.80;99.90
75430;DHT22;64127;51.488;5.462;2023-04-24T10:44:50;10.70;99.90
75430;DHT22;64127;51.488;5.462;2023-04-24T10:47:22;10.70;99.90
75430;DHT22;64127;51.488;5.462;2023-04-24T10:49:58;10.70;99.90
75430;DHT22;64127;51.488;5.462;2023-04-24T10:52:48;10.70;99.90
75430;DHT22;64127;51.488;5.462;2023-04-24T10:58:14;10.80;99.90
75430;DHT22;64127;51.488;5.462;2023-04-24T11:00:59;10.80;99.90
75430;DHT22;64127;51.488;5.462;2023-04-24T11:03:33;10.90;99.90
75430;DHT22;64127;51.488;5.462;2023-04-24T11:06:08;11.00;99.90
75430;DHT22;64127;51.488;5.462;2023-04-24T11:08:45;11.10;99.90
75430;DHT22;64127;51.488;5.462;2023-04-24T11:11:18;11.10;99.90
75430;DHT22;64127;51.488;5.462;2023-04-24T11:19:29;11.10;99.90
75430;DHT22;64127;51.488;5.462;2023-04-24T11:22:13;11.10;99.90
75430;DHT22;64127;51.488;5.462;2023-04-24T11:27:19;10.90;99.90
75430;DHT22;64127;51.488;5.462;2023-04-24T11:32:47;10.80;99.90
75430;DHT22;64127;51.488;5.462;2023-04-24T11:35:22;10.80;99.90
75430;DHT22;64127;51.488;5.462;2023-04-24T11:37:59;10.80;99.90
75430;DHT22;64127;51.488;5.462;2023-04-24T11:40:55;10.70;99.90
75430;DHT22;64127;51.488;5.462;2023-04-24T11:43:28;10.80;99.90
75430;DHT22;64127;51.488;5.462;2023-04-24T11:46:04;10.80;99.90
75430;DHT22;64127;51.488;5.462;2023-04-24T11:48:37;10.70;99.90
75430;DHT22;64127;51.488;5.462;2023-04-24T11:51:15;10.70;99.90
75430;DHT22;64127;51.488;5.462;2023-04-24T11:53:47;10.70;99.90
75430;DHT22;64127;51.488;5.462;2023-04-24T11:56:32;10.80;99.90
75430;DHT22;64127;51.488;5.462;2023-04-24T11:59:04;10.70;99.90
75430;DHT22;64127;51.488;5.462;2023-04-24T12:01:44;10.80;99.90
75430;DHT22;64127;51.488;5.462;2023-04-24T12:04:17;10.90;99.90
75430;DHT22;64127;51.488;5.462;2023-04-24T12:07:03;10.90;99.90
75430;DHT22;64127;51.488;5.462;2023-04-24T12:09:43;10.90;99.90
75430;DHT22;64127;51.488;5.462;2023-04-24T12:12:18;11.00;99.90
75430;DHT22;64127;51.488;5.462;2023-04-24T12:14:54;11.00;99.90
75430;DHT22;64127;51.488;5.462;2023-04-24T12:17:32;11.10;99.90
75430;DHT22;64127;51.488;5.462;2023-04-24T12:20:07;11.20;99.90
75430;DHT22;64127;51.488;5.462;2023-04-24T12:25:28;11.50;99.90
75430;DHT22;64127;51.488;5.462;2023-04-24T12:30:43;11.60;99.90
75430;DHT22;64127;51.488;5.462;2023-04-24T12:33:20;11.60;99.90
75430;DHT22;64127;51.488;5.462;2023-04-24T12:35:54;11.60;99.90
75430;DHT22;64127;51.488;5.462;2023-04-24T12:38:28;11.60;99.90
75430;DHT22;64127;51.488;5.462;2023-04-24T12:41:03;11.60;99.90
75430;DHT22;64127;51.488;5.462;2023-04-24T12:43:36;11.60;99.90
75430;DHT22;64127;51.488;5.462;2023-04-24T12:46:09;11.60;99.90
75430;DHT22;64127;51.488;5.462;2023-04-24T12:48:41;11.70;99.90
75430;DHT22;64127;51.488;5.462;2023-04-24T12:51:14;11.80;99.90
75430;DHT22;64127;51.488;5.462;2023-04-24T12:53:46;12.00;99.90
75430;DHT22;64127;51.488;5.462;2023-04-24T12:56:18;12.20;99.90
75430;DHT22;64127;51.488;5.462;2023-04-24T12:58:50;12.40;99.90
75430;DHT22;64127;51.488;5.462;2023-04-24T13:01:23;12.50;99.90
75430;DHT22;64127;51.488;5.462;2023-04-24T13:03:55;12.70;99.90
75430;DHT22;64127;51.488;5.462;2023-04-24T13:06:27;12.80;99.90
75430;DHT22;64127;51.488;5.462;2023-04-24T13:09:00;13.00;99.90
75430;DHT22;64127;51.488;5.462;2023-04-24T13:11:32;13.10;99.90
75430;DHT22;64127;51.488;5.462;2023-04-24T13:14:04;13.00;99.90
75430;DHT22;64127;51.488;5.462;2023-04-24T13:16:36;12.90;99.90
75430;DHT22;64127;51.488;5.462;2023-04-24T13:19:08;12.70;99.90
75430;DHT22;64127;51.488;5.462;2023-04-24T13:21:40;12.50;99.90
75430;DHT22;64127;51.488;5.462;2023-04-24T13:24:12;12.30;99.90
75430;DHT22;64127;51.488;5.462;2023-04-24T13:26:45;12.20;99.90
75430;DHT22;64127;51.488;5.462;2023-04-24T13:29:17;12.10;99.90
75430;DHT22;64127;51.488;5.462;2023-04-24T13:31:53;11.90;99.90
75430;DHT22;64127;51.488;5.462;2023-04-24T13:34:29;11.70;99.90
75430;DHT22;64127;51.488;5.462;2023-04-24T13:37:01;11.70;99.90
75430;DHT22;64127;51.488;5.462;2023-04-24T13:39:35;11.60;99.90
75430;DHT22;64127;51.488;5.462;2023-04-24T13:42:07;11.50;99.90
75430;DHT22;64127;51.488;5.462;2023-04-24T13:44:40;11.40;99.90
75430;DHT22;64127;51.488;5.462;2023-04-24T13:47:12;11.30;99.90
75430;DHT22;64127;51.488;5.462;2023-04-24T13:49:44;11.20;99.90
75430;DHT22;64127;51.488;5.462;2023-04-24T13:52:16;11.20;99.90
75430;DHT22;64127;51.488;5.462;2023-04-24T13:54:48;11.40;99.90
75430;DHT22;64127;51.488;5.462;2023-04-24T13:57:20;11.40;99.90
75430;DHT22;64127;51.488;5.462;2023-04-24T13:59:52;11.50;99.90
75430;DHT22;64127;51.488;5.462;2023-04-24T14:02:24;11.60;99.90
75430;DHT22;64127;51.488;5.462;2023-04-24T14:04:57;11.60;99.90
75430;DHT22;64127;51.488;5.462;2023-04-24T14:07:29;11.60;99.90
75430;DHT22;64127;51.488;5.462;2023-04-24T14:10:01;11.60;99.90
75430;DHT22;64127;51.488;5.462;2023-04-24T14:12:34;11.50;99.90
75430;DHT22;64127;51.488;5.462;2023-04-24T14:15:06;11.50;99.90
75430;DHT22;64127;51.488;5.462;2023-04-24T14:17:40;11.50;99.90
75430;DHT22;64127;51.488;5.462;2023-04-24T14:20:12;11.60;99.90
75430;DHT22;64127;51.488;5.462;2023-04-24T14:22:44;11.60;99.90
75430;DHT22;64127;51.488;5.462;2023-04-24T14:25:17;11.50;99.90
75430;DHT22;64127;51.488;5.462;2023-04-24T14:27:49;11.40;99.90
75430;DHT22;64127;51.488;5.462;2023-04-24T14:30:21;11.40;99.90
75430;DHT22;64127;51.488;5.462;2023-04-24T14:32:53;11.30;99.90
75430;DHT22;64127;51.488;5.462;2023-04-24T14:35:25;11.30;99.90
75430;DHT22;64127;51.488;5.462;2023-04-24T14:37:59;11.40;99.90
75430;DHT22;64127;51.488;5.462;2023-04-24T14:40:31;11.40;99.90
75430;DHT22;64127;51.488;5.462;2023-04-24T14:43:07;11.50;99.90
75430;DHT22;64127;51.488;5.462;2023-04-24T14:45:39;11.50;99.90
75430;DHT22;64127;51.488;5.462;2023-04-24T14:48:12;11.70;99.90
75430;DHT22;64127;51.488;5.462;2023-04-24T14:50:44;11.80;99.90
75430;DHT22;64127;51.488;5.462;2023-04-24T14:53:17;12.00;99.90
75430;DHT22;64127;51.488;5.462;2023-04-24T14:55:49;12.10;99.90
75430;DHT22;64127;51.488;5.462;2023-04-24T14:58:21;12.20;99.90
75430;DHT22;64127;51.488;5.462;2023-04-24T15:00:53;12.20;99.90
75430;DHT22;64127;51.488;5.462;2023-04-24T15:03:26;12.20;99.90
75430;DHT22;64127;51.488;5.462;2023-04-24T15:05:58;12.20;99.90
75430;DHT22;64127;51.488;5.462;2023-04-24T15:08:31;12.30;99.90
75430;DHT22;64127;51.488;5.462;2023-04-24T15:11:03;12.40;99.90
75430;DHT22;64127;51.488;5.462;2023-04-24T15:13:35;12.40;99.90
75430;DHT22;64127;51.488;5.462;2023-04-24T15:16:07;12.50;99.90
75430;DHT22;64127;51.488;5.462;2023-04-24T15:18:39;12.60;99.90
75430;DHT22;64127;51.488;5.462;2023-04-24T15:21:11;12.70;99.90
75430;DHT22;64127;51.488;5.462;2023-04-24T15:23:44;12.70;99.90
75430;DHT22;64127;51.488;5.462;2023-04-24T15:26:17;12.80;99.90
75430;DHT22;64127;51.488;5.462;2023-04-24T15:28:49;12.80;99.90
75430;DHT22;64127;51.488;5.462;2023-04-24T15:31:23;12.80;99.90
75430;DHT22;64127;51.488;5.462;2023-04-24T15:33:55;12.80;99.90
75430;DHT22;64127;51.488;5.462;2023-04-24T15:36:27;12.80;99.90
75430;DHT22;64127;51.488;5.462;2023-04-24T15:39:01;12.80;99.90
75430;DHT22;64127;51.488;5.462;2023-04-24T15:41:36;12.80;99.90
75430;DHT22;64127;51.488;5.462;2023-04-24T15:44:08;12.80;99.90
75430;DHT22;64127;51.488;5.462;2023-04-24T15:46:40;12.90;99.90
75430;DHT22;64127;51.488;5.462;2023-04-24T15:49:12;13.10;99.90
75430;DHT22;64127;51.488;5.462;2023-04-24T15:51:44;13.20;99.90
75430;DHT22;64127;51.488;5.462;2023-04-24T15:54:16;13.10;99.90
75430;DHT22;64127;51.488;5.462;2023-04-24T15:56:50;13.00;99.90
75430;DHT22;64127;51.488;5.462;2023-04-24T15:59:22;12.90;99.90
75430;DHT22;64127;51.488;5.462;2023-04-24T16:01:54;12.80;99.90
75430;DHT22;64127;51.488;5.462;2023-04-24T16:04:26;12.80;99.90
75430;DHT22;64127;51.488;5.462;2023-04-24T16:06:59;12.90;99.90
75430;DHT22;64127;51.488;5.462;2023-04-24T16:09:31;12.90;99.90
75430;DHT22;64127;51.488;5.462;2023-04-24T16:12:03;13.00;99.90
75430;DHT22;64127;51.488;5.462;2023-04-24T16:14:38;13.00;99.90
75430;DHT22;64127;51.488;5.462;2023-04-24T16:17:10;13.00;99.90
75430;DHT22;64127;51.488;5.462;2023-04-24T16:19:42;12.90;99.90
75430;DHT22;64127;51.488;5.462;2023-04-24T16:22:14;12.80;99.90
75430;DHT22;64127;51.488;5.462;2023-04-24T16:24:46;12.70;99.90
75430;DHT22;64127;51.488;5.462;2023-04-24T16:27:18;12.60;99.90
75430;DHT22;64127;51.488;5.462;2023-04-24T16:29:51;12.50;99.90
75430;DHT22;64127;51.488;5.462;2023-04-24T16:32:23;12.40;99.90